createdAt,value
2023-02-05T00:01:28.495Z,9.70
2023-02-05T00:03:55.345Z,9.80
2023-02-05T00:06:22.258Z,9.60
2023-02-05T00:08:49.043Z,8.40
2023-02-05T00:11:15.820Z,8.57
2023-02-05T00:13:43.241Z,10.25
2023-02-05T00:16:15.457Z,9.93
2023-02-05T00:18:42.712Z,10.50
2023-02-05T00:21:10.437Z,14.05
2023-02-05T00:23:37.837Z,8.20
2023-02-05T00:26:05.677Z,8.95
2023-02-05T00:28:33.976Z,8.88
2023-02-05T00:31:01.132Z,12.13
2023-02-05T00:33:28.099Z,11.38
2023-02-05T00:35:54.958Z,10.13
2023-02-05T00:38:21.825Z,12.20
2023-02-05T00:40:49.848Z,11.50
2023-02-05T00:43:16.632Z,13.52
2023-02-05T00:45:43.518Z,10.85
2023-02-05T00:48:10.332Z,13.02
2023-02-05T00:50:37.282Z,12.60
2023-02-05T00:53:04.341Z,12.90
2023-02-05T00:55:31.578Z,11.18
2023-02-05T00:57:58.750Z,11.90
2023-02-05T01:00:26.872Z,10.43
2023-02-05T01:02:54.751Z,7.68
2023-02-05T01:05:21.605Z,10.73
2023-02-05T01:07:48.378Z,9.38
2023-02-05T01:10:15.379Z,8.48
2023-02-05T01:12:42.243Z,9.75
2023-02-05T01:15:11.585Z,8.73
2023-02-05T01:17:38.376Z,8.15
2023-02-05T01:20:06.289Z,14.77
2023-02-05T01:22:33.518Z,8.50
2023-02-05T01:25:00.349Z,9.57
2023-02-05T01:27:27.248Z,10.63
2023-02-05T01:29:54.057Z,14.50
2023-02-05T01:32:20.927Z,13.55
2023-02-05T01:34:47.788Z,8.65
2023-02-05T01:37:14.622Z,9.88
2023-02-05T01:39:42.053Z,12.05
2023-02-05T01:42:29.925Z,12.07
2023-02-05T01:45:21.683Z,12.13
2023-02-05T01:47:55.352Z,8.32
2023-02-05T01:50:39.337Z,9.23
2023-02-05T01:53:13.489Z,10.90
2023-02-05T01:55:56.326Z,13.32
2023-02-05T01:58:25.741Z,9.25
2023-02-05T02:00:52.643Z,10.23
2023-02-05T02:03:19.567Z,13.95
2023-02-05T02:05:46.396Z,10.32
2023-02-05T02:08:13.595Z,11.68
2023-02-05T02:10:43.164Z,12.15
2023-02-05T02:13:11.020Z,9.40
2023-02-05T02:15:38.247Z,10.88
2023-02-05T02:18:25.834Z,10.48
2023-02-05T02:21:05.318Z,10.90
2023-02-05T02:24:05.427Z,13.52
2023-02-05T02:26:47.493Z,11.90
2023-02-05T02:29:28.122Z,12.27
2023-02-05T02:32:05.633Z,12.07
2023-02-05T02:34:47.102Z,11.50
2023-02-05T02:37:29.912Z,11.20
2023-02-05T02:40:08.050Z,10.55
2023-02-05T02:43:11.562Z,12.10
2023-02-05T02:45:46.314Z,13.35
2023-02-05T02:48:16.161Z,10.15
2023-02-05T02:50:47.843Z,11.60
2023-02-05T02:53:19.297Z,13.57
2023-02-05T02:55:49.246Z,15.20
2023-02-05T02:58:24.710Z,9.98
2023-02-05T03:00:54.777Z,9.45
2023-02-05T03:03:24.355Z,10.75
2023-02-05T03:05:54.977Z,9.48
2023-02-05T03:08:30.864Z,11.40
2023-02-05T03:11:02.656Z,13.40
2023-02-05T03:13:31.051Z,13.20
2023-02-05T03:16:00.969Z,14.45
2023-02-05T03:18:29.378Z,16.40
2023-02-05T03:21:00.252Z,13.70
2023-02-05T03:23:28.067Z,14.98
2023-02-05T03:25:55.665Z,10.70
2023-02-05T03:28:30.894Z,11.55
2023-02-05T03:31:21.020Z,14.30
2023-02-05T03:34:06.353Z,16.33
2023-02-05T03:36:48.698Z,11.75
2023-02-05T03:39:31.223Z,12.93
2023-02-05T03:42:27.848Z,11.55
2023-02-05T03:45:20.467Z,14.95
2023-02-05T03:48:00.965Z,12.80
2023-02-05T03:50:36.520Z,11.52
2023-02-05T03:53:21.773Z,15.57
2023-02-05T03:55:55.637Z,16.58
2023-02-05T03:58:43.473Z,14.63
2023-02-05T04:01:11.866Z,13.98
2023-02-05T04:03:39.579Z,11.50
2023-02-05T04:06:07.829Z,11.15
2023-02-05T04:08:35.634Z,12.63
2023-02-05T04:11:03.723Z,12.65
2023-02-05T04:13:31.520Z,13.30
2023-02-05T04:15:58.707Z,13.23
2023-02-05T04:18:25.502Z,15.68
2023-02-05T04:20:52.955Z,14.85
2023-02-05T04:23:23.381Z,11.68
2023-02-05T04:25:55.378Z,13.35
2023-02-05T04:28:29.398Z,13.32
2023-02-05T04:30:56.736Z,12.32
2023-02-05T04:33:24.154Z,14.90
2023-02-05T04:35:50.957Z,15.15
2023-02-05T04:38:18.163Z,14.82
2023-02-05T04:40:45.529Z,13.85
2023-02-05T04:43:12.348Z,15.20
2023-02-05T04:45:39.134Z,23.45
2023-02-05T04:48:06.663Z,15.02
2023-02-05T04:50:33.577Z,13.75
2023-02-05T04:53:02.162Z,21.70
2023-02-05T04:55:29.972Z,11.60
2023-02-05T04:57:56.728Z,12.13
2023-02-05T05:00:23.926Z,14.20
2023-02-05T05:02:50.716Z,16.60
2023-02-05T05:05:18.304Z,20.58
2023-02-05T05:07:45.108Z,17.38
2023-02-05T05:10:12.807Z,14.75
2023-02-05T05:12:39.570Z,14.57
2023-02-05T05:15:07.092Z,16.17
2023-02-05T05:17:35.396Z,24.17
2023-02-05T05:20:02.270Z,17.10
2023-02-05T05:22:29.100Z,16.80
2023-02-05T05:24:55.928Z,14.88
2023-02-05T05:27:24.225Z,16.65
2023-02-05T05:29:51.072Z,18.33
2023-02-05T05:32:17.991Z,18.23
2023-02-05T05:34:44.836Z,14.00
2023-02-05T05:37:11.657Z,19.48
2023-02-05T05:39:56.865Z,16.17
2023-02-05T05:42:42.230Z,14.10
2023-02-05T05:45:10.125Z,23.83
2023-02-05T05:47:36.923Z,16.05
2023-02-05T05:50:04.010Z,22.40
2023-02-05T05:52:32.481Z,15.07
2023-02-05T05:54:59.654Z,19.88
2023-02-05T05:57:26.507Z,23.80
2023-02-05T05:59:53.252Z,18.90
2023-02-05T06:02:20.121Z,19.38
2023-02-05T06:04:47.026Z,16.63
2023-02-05T06:07:13.942Z,19.73
2023-02-05T06:09:40.759Z,14.70
2023-02-05T06:12:07.635Z,20.00
2023-02-05T06:14:34.494Z,19.05
2023-02-05T06:17:01.303Z,18.15
2023-02-05T06:19:28.148Z,23.45
2023-02-05T06:21:54.956Z,18.88
2023-02-05T06:24:21.743Z,21.30
2023-02-05T06:26:48.538Z,20.17
2023-02-05T06:29:15.575Z,23.88
2023-02-05T06:31:42.494Z,18.63
2023-02-05T06:34:09.389Z,21.55
2023-02-05T06:36:36.345Z,23.15
2023-02-05T06:39:03.195Z,22.25
2023-02-05T06:41:29.985Z,23.15
2023-02-05T06:43:56.781Z,19.95
2023-02-05T06:46:23.610Z,27.95
2023-02-05T06:48:50.499Z,26.13
2023-02-05T06:51:17.515Z,26.73
2023-02-05T06:53:44.341Z,23.92
2023-02-05T06:56:11.277Z,23.17
2023-02-05T06:58:38.055Z,24.60
2023-02-05T07:01:05.022Z,28.73
2023-02-05T07:03:31.860Z,24.75
2023-02-05T07:06:03.516Z,27.85
2023-02-05T07:08:30.537Z,34.50
2023-02-05T07:10:57.686Z,32.40
2023-02-05T07:13:24.913Z,33.88
2023-02-05T07:15:51.740Z,26.30
2023-02-05T07:18:18.509Z,29.25
2023-02-05T07:20:45.466Z,29.27
2023-02-05T07:23:12.265Z,28.48
2023-02-05T07:25:39.031Z,25.40
2023-02-05T07:28:07.667Z,24.67
2023-02-05T07:30:37.675Z,25.50
2023-02-05T07:33:04.753Z,21.75
2023-02-05T07:35:32.632Z,23.60
2023-02-05T07:37:59.709Z,18.45
2023-02-05T07:40:26.597Z,23.67
2023-02-05T07:42:53.330Z,18.02
2023-02-05T07:45:20.102Z,18.73
2023-02-05T07:47:49.830Z,17.20
2023-02-05T07:50:17.449Z,17.23
2023-02-05T07:52:44.317Z,14.85
2023-02-05T07:55:11.119Z,16.00
2023-02-05T07:57:37.898Z,13.32
2023-02-05T08:00:05.118Z,14.95
2023-02-05T08:02:39.313Z,12.25
2023-02-05T08:05:06.602Z,14.15
2023-02-05T08:07:33.555Z,16.80
2023-02-05T08:10:00.311Z,13.25
2023-02-05T08:12:27.186Z,15.30
2023-02-05T08:14:53.919Z,10.77
2023-02-05T08:17:20.733Z,15.77
2023-02-05T08:19:47.473Z,14.15
2023-02-05T08:22:14.148Z,13.50
2023-02-05T08:24:40.773Z,11.25
2023-02-05T08:27:07.458Z,17.98
2023-02-05T08:29:34.220Z,10.75
2023-02-05T08:32:00.954Z,7.90
2023-02-05T08:34:28.240Z,8.07
2023-02-05T08:36:54.908Z,6.28
2023-02-05T08:39:21.564Z,4.95
2023-02-05T08:41:48.247Z,3.72
2023-02-05T08:44:14.938Z,9.25
2023-02-05T08:46:49.770Z,4.45
2023-02-05T08:49:17.651Z,18.73
2023-02-05T08:51:44.349Z,7.57
2023-02-05T08:54:13.083Z,13.75
2023-02-05T08:56:41.095Z,8.23
2023-02-05T08:59:08.955Z,4.45
2023-02-05T09:01:42.862Z,4.72
2023-02-05T09:04:15.755Z,4.13
2023-02-05T09:06:42.626Z,4.05
2023-02-05T09:09:09.935Z,5.18
2023-02-05T09:11:36.830Z,4.20
2023-02-05T09:14:05.250Z,2.47
2023-02-05T09:16:32.563Z,2.45
2023-02-05T09:18:59.905Z,2.90
2023-02-05T09:21:27.137Z,2.92
2023-02-05T09:23:54.688Z,14.23
2023-02-05T09:26:21.904Z,3.72
2023-02-05T09:28:48.692Z,6.35
2023-02-05T09:31:18.696Z,7.28
2023-02-05T09:33:46.501Z,5.55
2023-02-05T09:36:21.227Z,2.80
2023-02-05T09:38:48.466Z,1.92
2023-02-05T09:41:15.113Z,1.15
2023-02-05T09:44:05.613Z,5.10
2023-02-05T09:46:55.680Z,2.05
2023-02-05T09:49:32.517Z,1.33
2023-02-05T09:52:02.958Z,1.20
2023-02-05T09:54:34.033Z,2.25
2023-02-05T09:57:06.784Z,2.83
2023-02-05T09:59:34.644Z,2.05
2023-02-05T10:02:21.492Z,2.55
2023-02-05T10:04:52.229Z,2.17
2023-02-05T10:07:35.559Z,1.88
2023-02-05T10:10:27.469Z,2.33
2023-02-05T10:13:11.987Z,2.10
2023-02-05T10:16:16.016Z,2.28
2023-02-05T10:18:57.779Z,4.90
2023-02-05T10:21:33.571Z,3.15
2023-02-05T10:24:21.615Z,1.60
2023-02-05T10:27:09.716Z,3.50
2023-02-05T10:30:00.489Z,1.17
2023-02-05T10:32:42.196Z,2.15
2023-02-05T10:35:29.579Z,2.50
2023-02-05T10:37:57.961Z,2.15
2023-02-05T10:40:30.723Z,1.75
2023-02-05T10:43:05.123Z,2.92
2023-02-05T10:45:32.126Z,4.70
2023-02-05T10:48:16.804Z,8.55
2023-02-05T10:51:19.919Z,10.95
2023-02-05T10:53:46.640Z,7.53
2023-02-05T10:56:18.909Z,3.58
2023-02-05T10:58:57.726Z,6.30
2023-02-05T11:01:31.998Z,7.72
2023-02-05T11:04:11.429Z,5.80
2023-02-05T11:06:52.374Z,6.55
2023-02-05T11:09:25.310Z,8.88
2023-02-05T11:11:53.752Z,8.38
2023-02-05T11:14:28.237Z,6.05
2023-02-05T11:16:54.940Z,8.65
2023-02-05T11:19:28.286Z,7.85
2023-02-05T11:21:56.457Z,11.00
2023-02-05T11:24:43.936Z,4.07
2023-02-05T11:27:16.493Z,5.93
2023-02-05T11:29:43.683Z,3.97
2023-02-05T11:32:34.102Z,8.23
2023-02-05T11:35:20.758Z,5.03
2023-02-05T11:37:58.739Z,5.00
2023-02-05T11:40:28.857Z,10.13
2023-02-05T11:43:25.283Z,3.47
2023-02-05T11:45:53.665Z,7.93
2023-02-05T11:48:40.446Z,3.70
2023-02-05T11:51:14.896Z,3.42
2023-02-05T11:53:54.157Z,6.43
2023-02-05T11:56:25.401Z,5.95
2023-02-05T11:59:05.085Z,5.20
2023-02-05T12:01:35.768Z,3.58
2023-02-05T12:04:22.979Z,5.68
2023-02-05T12:06:56.673Z,5.13
2023-02-05T12:09:25.246Z,3.45
2023-02-05T12:12:18.241Z,5.38
2023-02-05T12:14:49.407Z,3.47
2023-02-05T12:17:39.892Z,2.97
2023-02-05T12:20:09.702Z,3.90
2023-02-05T12:23:07.652Z,5.15
2023-02-05T12:25:56.025Z,7.38
2023-02-05T12:29:02.112Z,6.25
2023-02-05T12:31:44.598Z,6.53
2023-02-05T12:34:36.324Z,6.30
2023-02-05T12:37:10.707Z,5.63
2023-02-05T12:40:01.768Z,10.38
2023-02-05T12:42:39.374Z,11.90
2023-02-05T12:45:27.721Z,7.57
2023-02-05T12:48:29.704Z,8.20
2023-02-05T12:51:19.391Z,9.60
2023-02-05T12:54:19.942Z,6.57
2023-02-05T12:57:06.771Z,8.45
2023-02-05T12:59:43.496Z,10.43
2023-02-05T13:02:34.198Z,7.82
2023-02-05T13:05:07.091Z,6.70
2023-02-05T13:07:38.125Z,10.07
2023-02-05T13:10:13.621Z,9.13
2023-02-05T13:12:45.519Z,6.70
2023-02-05T13:15:25.210Z,6.53
2023-02-05T13:18:04.597Z,14.90
2023-02-05T13:20:59.803Z,7.38
2023-02-05T13:23:46.566Z,9.00
2023-02-05T13:26:24.737Z,8.07
2023-02-05T13:28:57.660Z,9.00
2023-02-05T13:31:26.824Z,9.50
2023-02-05T13:33:56.469Z,13.23
2023-02-05T13:36:27.200Z,13.13
2023-02-05T13:39:24.346Z,12.73
2023-02-05T13:42:17.933Z,11.23
2023-02-05T13:45:15.188Z,7.25
2023-02-05T13:48:02.611Z,9.05
2023-02-05T13:51:06.549Z,13.20
2023-02-05T13:54:10.494Z,10.43
2023-02-05T13:56:55.268Z,6.75
2023-02-05T13:59:28.129Z,13.75
2023-02-05T14:02:01.203Z,15.75
2023-02-05T14:04:42.232Z,13.77
2023-02-05T14:07:24.777Z,10.10
2023-02-05T14:09:56.441Z,11.48
2023-02-05T14:12:26.924Z,15.63
2023-02-05T14:15:19.512Z,11.95
2023-02-05T14:17:46.183Z,10.18
2023-02-05T14:20:25.337Z,10.05
2023-02-05T14:22:52.591Z,11.02
2023-02-05T14:25:45.925Z,9.90
2023-02-05T14:28:15.713Z,12.43
2023-02-05T14:30:56.931Z,13.80
2023-02-05T14:33:36.554Z,17.10
2023-02-05T14:36:19.745Z,9.65
2023-02-05T14:38:53.420Z,10.48
2023-02-05T14:41:23.577Z,12.38
2023-02-05T14:43:58.396Z,13.93
2023-02-05T14:46:27.824Z,13.35
2023-02-05T14:49:00.233Z,7.93
2023-02-05T14:51:31.468Z,11.27
2023-02-05T14:54:06.768Z,20.73
2023-02-05T14:56:43.906Z,14.02
2023-02-05T14:59:29.216Z,16.65
2023-02-05T15:02:00.022Z,14.45
2023-02-05T15:04:54.386Z,17.67
2023-02-05T15:07:25.551Z,11.63
2023-02-05T15:09:52.206Z,22.92
2023-02-05T15:12:37.438Z,17.50
2023-02-05T15:15:33.205Z,9.73
2023-02-05T15:18:08.911Z,13.80
2023-02-05T15:20:39.900Z,26.17
2023-02-05T15:23:25.260Z,16.02
2023-02-05T15:26:02.899Z,11.90
2023-02-05T15:28:54.428Z,18.58
2023-02-05T15:31:38.886Z,17.38
2023-02-05T15:34:39.933Z,21.05
2023-02-05T15:37:09.727Z,16.70
2023-02-05T15:39:57.897Z,14.48
2023-02-05T15:42:43.833Z,12.02
2023-02-05T15:45:40.220Z,13.93
2023-02-05T15:48:09.929Z,12.07
2023-02-05T15:50:55.444Z,24.73
2023-02-05T15:53:25.087Z,14.13
2023-02-05T15:55:52.324Z,16.65
2023-02-05T15:58:23.707Z,11.73
2023-02-05T16:00:52.300Z,12.90
2023-02-05T16:03:38.886Z,16.33
2023-02-05T16:06:06.854Z,14.50
2023-02-05T16:08:34.266Z,14.32
2023-02-05T16:11:05.841Z,19.75
2023-02-05T16:13:32.510Z,15.32
2023-02-05T16:16:24.213Z,15.75
2023-02-05T16:18:54.924Z,15.73
2023-02-05T16:21:32.614Z,25.20
2023-02-05T16:24:24.320Z,15.00
2023-02-05T16:27:04.832Z,21.73
2023-02-05T16:29:48.254Z,20.95
2023-02-05T16:32:44.478Z,20.60
2023-02-05T16:35:30.044Z,14.32
2023-02-05T16:37:57.549Z,15.07
2023-02-05T16:40:37.678Z,15.55
2023-02-05T16:43:37.919Z,25.80
2023-02-05T16:46:07.796Z,13.25
2023-02-05T16:48:35.305Z,16.40
2023-02-05T16:51:02.040Z,16.92
2023-02-05T16:53:31.916Z,17.85
2023-02-05T16:56:10.679Z,18.35
2023-02-05T16:58:46.684Z,14.20
2023-02-05T17:01:13.436Z,12.63
2023-02-05T17:03:43.521Z,12.45
2023-02-05T17:06:15.673Z,15.85
2023-02-05T17:08:46.517Z,12.93
2023-02-05T17:11:38.572Z,14.88
2023-02-05T17:14:13.193Z,15.88
2023-02-05T17:16:41.848Z,15.38
2023-02-05T17:19:30.344Z,13.88
2023-02-05T17:22:27.466Z,16.00
2023-02-05T17:24:54.798Z,13.10
2023-02-05T17:27:29.979Z,13.18
2023-02-05T17:30:00.148Z,14.00
2023-02-05T17:32:28.364Z,22.80
2023-02-05T17:34:55.251Z,10.18
2023-02-05T17:37:21.870Z,14.13
2023-02-05T17:39:49.693Z,12.88
2023-02-05T17:42:22.956Z,14.85
2023-02-05T17:44:50.604Z,11.75
2023-02-05T17:47:17.376Z,11.88
2023-02-05T17:49:44.090Z,15.82
2023-02-05T17:52:10.847Z,15.52
2023-02-05T17:54:37.745Z,9.38
2023-02-05T17:57:15.686Z,11.02
2023-02-05T17:59:44.675Z,13.52
2023-02-05T18:02:12.418Z,11.40
2023-02-05T18:04:40.300Z,11.25
2023-02-05T18:07:27.426Z,13.55
2023-02-05T18:09:54.134Z,12.45
2023-02-05T18:12:20.822Z,12.20
2023-02-05T18:14:47.542Z,16.95
2023-02-05T18:17:14.413Z,12.75
2023-02-05T18:19:41.187Z,17.10
2023-02-05T18:22:08.039Z,18.85
2023-02-05T18:24:39.231Z,18.90
2023-02-05T18:27:09.681Z,15.73
2023-02-05T18:29:36.735Z,15.05
2023-02-05T18:32:04.501Z,15.80
2023-02-05T18:34:31.163Z,12.30
2023-02-05T18:36:58.029Z,15.43
2023-02-05T18:39:29.322Z,13.85
2023-02-05T18:41:57.038Z,17.70
2023-02-05T18:44:24.889Z,12.32
2023-02-05T18:46:51.959Z,14.00
2023-02-05T18:49:18.646Z,18.17
2023-02-05T18:51:45.400Z,16.25
2023-02-05T18:54:12.107Z,11.40
2023-02-05T18:56:38.969Z,18.33
2023-02-05T18:59:08.363Z,16.10
2023-02-05T19:01:39.644Z,13.13
2023-02-05T19:04:15.236Z,20.08
2023-02-05T19:06:43.698Z,15.57
2023-02-05T19:09:10.603Z,16.05
2023-02-05T19:11:40.934Z,15.07
2023-02-05T19:14:11.798Z,12.60
2023-02-05T19:16:39.384Z,23.25
2023-02-05T19:19:06.869Z,19.33
2023-02-05T19:21:34.501Z,14.35
2023-02-05T19:24:05.431Z,13.40
2023-02-05T19:26:33.217Z,18.17
2023-02-05T19:29:02.983Z,18.05
2023-02-05T19:31:32.528Z,16.90
2023-02-05T19:34:00.046Z,21.70
2023-02-05T19:36:27.089Z,14.68
2023-02-05T19:38:53.962Z,19.08
2023-02-05T19:41:23.703Z,17.33
2023-02-05T19:43:59.035Z,18.55
2023-02-05T19:46:34.801Z,16.58
2023-02-05T19:49:04.146Z,18.35
2023-02-05T19:51:30.993Z,19.00
2023-02-05T19:53:59.038Z,17.20
2023-02-05T19:56:26.508Z,20.10
2023-02-05T19:58:55.399Z,13.63
2023-02-05T20:01:32.489Z,16.85
2023-02-05T20:04:24.618Z,17.05
2023-02-05T20:06:56.253Z,25.00
2023-02-05T20:09:23.331Z,20.02
2023-02-05T20:11:52.900Z,17.33
2023-02-05T20:14:19.832Z,14.65
2023-02-05T20:16:47.261Z,14.82
2023-02-05T20:19:15.935Z,19.00
2023-02-05T20:21:43.243Z,21.83
2023-02-05T20:24:10.254Z,23.90
2023-02-05T20:26:38.572Z,26.05
2023-02-05T20:29:24.236Z,21.00
2023-02-05T20:31:52.463Z,24.80
2023-02-05T20:34:22.354Z,21.33
2023-02-05T20:36:51.847Z,18.70
2023-02-05T20:39:19.865Z,18.40
2023-02-05T20:41:48.506Z,24.35
2023-02-05T20:44:15.879Z,17.33
2023-02-05T20:46:43.490Z,27.27
2023-02-05T20:49:10.262Z,29.00
2023-02-05T20:51:37.259Z,24.70
2023-02-05T20:54:05.055Z,22.80
2023-02-05T20:56:32.320Z,14.15
2023-02-05T20:59:00.890Z,19.70
2023-02-05T21:01:29.103Z,21.73
2023-02-05T21:03:58.955Z,22.35
2023-02-05T21:06:27.701Z,18.73
2023-02-05T21:08:55.017Z,23.38
2023-02-05T21:11:23.288Z,18.70
2023-02-05T21:13:51.183Z,17.80
2023-02-05T21:16:21.355Z,21.13
2023-02-05T21:18:49.319Z,22.13
2023-02-05T21:21:22.180Z,32.63
2023-02-05T21:23:52.257Z,23.33
2023-02-05T21:26:33.930Z,22.50
2023-02-05T21:29:04.134Z,22.35
2023-02-05T21:31:35.789Z,24.17
2023-02-05T21:34:04.659Z,22.52
2023-02-05T21:36:31.449Z,19.13
2023-02-05T21:38:58.105Z,24.30
2023-02-05T21:41:24.914Z,23.60
2023-02-05T21:43:54.322Z,19.88
2023-02-05T21:46:22.782Z,38.45
2023-02-05T21:48:51.904Z,30.98
2023-02-05T21:51:21.857Z,19.75
2023-02-05T21:53:55.138Z,26.80
2023-02-05T21:56:22.038Z,10.95
2023-02-05T21:58:48.910Z,22.30
2023-02-05T22:01:18.575Z,21.17
2023-02-05T22:04:00.315Z,22.17
2023-02-05T22:06:29.443Z,23.13
2023-02-05T22:08:57.087Z,15.52
2023-02-05T22:11:25.099Z,21.58
2023-02-05T22:13:53.401Z,20.13
2023-02-05T22:16:28.815Z,23.90
2023-02-05T22:18:56.400Z,27.02
2023-02-05T22:21:31.501Z,28.23
2023-02-05T22:24:00.399Z,22.48
2023-02-05T22:26:31.156Z,19.17
2023-02-05T22:29:01.817Z,18.13
2023-02-05T22:31:29.509Z,17.08
2023-02-05T22:33:56.856Z,20.38
2023-02-05T22:36:27.026Z,25.83
2023-02-05T22:38:54.700Z,20.25
2023-02-05T22:41:25.300Z,24.05
2023-02-05T22:43:53.950Z,29.67
2023-02-05T22:46:23.027Z,23.67
2023-02-05T22:48:50.686Z,19.20
2023-02-05T22:51:39.117Z,20.35
2023-02-05T22:54:07.109Z,24.90
2023-02-05T22:56:33.881Z,27.65
2023-02-05T22:59:03.081Z,26.40
2023-02-05T23:01:33.292Z,19.20
2023-02-05T23:04:02.208Z,21.92
2023-02-05T23:06:34.276Z,18.92
2023-02-05T23:09:08.142Z,21.42
2023-02-05T23:11:35.520Z,22.02
2023-02-05T23:14:03.795Z,25.00
2023-02-05T23:16:44.119Z,22.45
2023-02-05T23:19:18.393Z,26.65
2023-02-05T23:21:45.878Z,18.10
2023-02-05T23:24:12.932Z,20.38
2023-02-05T23:26:42.545Z,26.65
2023-02-05T23:29:11.628Z,25.52
2023-02-05T23:31:38.927Z,32.35
2023-02-05T23:34:07.371Z,26.65
2023-02-05T23:36:34.211Z,25.42
2023-02-05T23:39:00.923Z,22.60
2023-02-05T23:41:37.199Z,26.75
2023-02-05T23:44:06.528Z,20.00
2023-02-05T23:46:33.720Z,28.75
2023-02-05T23:49:00.381Z,30.10
2023-02-05T23:51:27.093Z,25.52
2023-02-05T23:53:53.862Z,25.83
2023-02-05T23:56:20.554Z,37.38
2023-02-05T23:58:47.352Z,19.25
